Time;durP1;ratioP1;P1;durP2;ratioP2;P2;SDS_P1;SDS_P2;PMS_P1;PMS_P2;Temp;Humidity;BMP_temperature;BMP_pressure;BME280_temperature;BME280_humidity;BME280_pressure;Samples;Min_cycle;Max_cycle;Signal;HPM_P1;HPM_P2
2022/04/02 00:01:08;;;;;;;6.75;1.50;;;3.00;99.90;;;1.33;61.49;100947.72;5003060;28;20169;-71
2022/04/02 00:03:35;;;;;;;7.18;1.40;;;3.00;99.90;;;1.29;60.28;100945.13;4983781;28;20050;-71
2022/04/02 00:06:00;;;;;;;4.75;1.15;;;3.00;99.90;;;1.36;59.89;100950.31;5000657;28;20042;-71
2022/04/02 00:08:26;;;;;;;0.98;0.50;;;3.00;99.90;;;1.22;59.76;100947.75;4992979;28;20038;-71
2022/04/02 00:10:52;;;;;;;3.28;1.20;;;3.00;99.90;;;1.22;59.90;100942.56;5001710;28;20038;-72
2022/04/02 00:13:18;;;;;;;4.13;1.08;;;2.90;99.90;;;1.18;59.87;100950.38;5000570;28;20067;-71
2022/04/02 00:15:44;;;;;;;4.63;1.20;;;2.90;99.90;;;1.17;59.69;100940.88;4998700;28;20529;-72
2022/04/02 00:18:10;;;;;;;2.80;1.00;;;2.80;99.90;;;1.03;60.18;100946.97;5002818;28;20072;-71
2022/04/02 00:20:36;;;;;;;2.65;0.90;;;2.80;99.90;;;1.03;60.65;100961.66;4991926;28;20076;-71
2022/04/02 00:25:46;;;;;;;3.55;1.08;;;2.70;99.90;;;1.02;61.37;100958.22;5001084;28;20052;-70
2022/04/02 00:28:12;;;;;;;3.78;1.00;;;2.80;99.90;;;1.06;61.41;100958.19;4998885;28;20029;-71
2022/04/02 00:30:40;;;;;;;3.70;1.27;;;2.80;99.90;;;1.07;61.22;100958.19;4993570;28;20022;-71
2022/04/02 00:33:06;;;;;;;3.95;1.27;;;2.80;99.90;;;1.06;61.90;100960.78;4998782;28;20208;-71
2022/04/02 00:35:33;;;;;;;3.63;1.30;;;2.70;99.90;;;1.02;62.15;100971.19;4999455;28;20037;-71
2022/04/02 00:37:59;;;;;;;6.95;1.60;;;2.70;99.90;;;1.08;62.08;100969.44;5003400;28;20098;-71
2022/04/02 00:40:25;;;;;;;2.45;0.93;;;2.80;99.90;;;1.06;62.14;100969.47;5001664;28;20033;-71
2022/04/02 00:42:51;;;;;;;8.77;1.48;;;2.70;99.90;;;0.97;62.50;100965.16;4997397;28;20098;-71
2022/04/02 00:45:17;;;;;;;5.05;1.20;;;2.70;99.90;;;0.97;63.22;100969.47;4998205;28;20104;-71
2022/04/02 00:47:43;;;;;;;3.13;0.80;;;2.70;99.90;;;0.96;62.97;100965.16;4994810;28;20097;-71
2022/04/02 00:50:11;;;;;;;4.63;1.38;;;2.70;99.90;;;0.97;62.87;100959.97;4999515;28;20033;-70
2022/04/02 00:52:40;;;;;;;5.82;1.50;;;2.70;99.90;;;1.03;62.71;100966.84;4996798;28;20033;-71
2022/04/02 00:55:07;;;;;;;6.80;1.55;;;2.70;99.90;;;0.97;62.54;100962.56;5010650;28;20409;-71
2022/04/02 00:57:34;;;;;;;6.10;1.60;;;2.70;99.90;;;0.92;62.62;100955.66;5002002;28;20030;-71
2022/04/02 01:00:03;;;;;;;5.20;1.60;;;2.60;99.90;;;0.92;62.65;100953.94;4996771;28;20030;-72
2022/04/02 01:02:29;;;;;;;3.33;1.17;;;2.70;99.90;;;0.97;62.80;100959.09;4986140;28;20877;-71
2022/04/02 01:04:55;;;;;;;10.82;1.77;;;2.70;99.90;;;1.02;62.66;100960.81;4989618;28;20032;-71
2022/04/02 01:07:21;;;;;;;4.88;1.48;;;2.70;99.90;;;1.03;62.70;100957.34;5016537;28;20029;-71
2022/04/02 01:09:47;;;;;;;5.63;1.27;;;2.70;99.90;;;1.02;62.85;100955.63;4999592;28;20033;-71
2022/04/02 01:12:14;;;;;;;5.10;1.50;;;2.70;99.90;;;1.00;62.82;100957.34;4987577;28;20041;-70
2022/04/02 01:14:40;;;;;;;4.07;1.35;;;2.70;99.90;;;1.00;63.32;100953.91;4997877;28;20458;-70
2022/04/02 01:17:06;;;;;;;6.78;1.42;;;2.70;99.90;;;0.97;63.06;100947.00;4989564;28;20452;-71
2022/04/02 01:19:33;;;;;;;3.92;1.30;;;2.70;99.90;;;1.03;63.44;100946.97;4997217;28;20111;-71
2022/04/02 01:22:02;;;;;;;4.53;1.17;;;2.70;99.90;;;1.05;63.41;100965.13;4999435;28;20034;-72
2022/04/02 01:24:29;;;;;;;10.15;1.63;;;2.70;99.90;;;1.08;63.46;100957.34;4981521;28;20026;-71
2022/04/02 01:26:55;;;;;;;4.07;1.65;;;2.80;99.90;;;1.06;64.53;100956.50;4974247;28;20041;-71
2022/04/02 01:29:20;;;;;;;6.68;1.80;;;2.80;99.90;;;1.15;64.79;100953.84;4998961;28;20455;-71
2022/04/02 01:31:47;;;;;;;6.93;1.65;;;2.90;99.90;;;1.20;65.12;100948.63;4999982;28;20117;-70
2022/04/02 01:34:13;;;;;;;6.55;1.48;;;2.80;99.90;;;1.17;65.71;100952.13;4989087;28;20040;-71
2022/04/02 01:36:39;;;;;;;6.20;1.83;;;2.80;99.90;;;1.17;66.15;100946.06;4998717;28;20042;-72
2022/04/02 01:39:04;;;;;;;5.22;1.65;;;2.80;99.90;;;1.08;66.79;100940.91;4999543;28;20176;-71
2022/04/02 01:41:31;;;;;;;5.85;1.55;;;2.80;99.90;;;1.12;66.84;100948.66;4999885;28;20064;-71
2022/04/02 01:43:57;;;;;;;7.03;1.30;;;2.80;99.90;;;1.05;66.50;100944.38;4995638;28;20030;-71
2022/04/02 01:46:23;;;;;;;4.50;1.38;;;2.80;99.90;;;1.03;66.12;100936.59;5000156;28;20370;-71
2022/04/02 01:48:49;;;;;;;3.30;1.23;;;2.70;99.90;;;1.03;65.96;100941.78;4975304;28;20053;-71
2022/04/02 01:51:18;;;;;;;5.82;1.40;;;2.70;99.90;;;0.99;65.61;100944.38;4995427;28;20076;-72
2022/04/02 01:53:43;;;;;;;4.88;1.40;;;2.70;99.90;;;0.97;65.32;100947.00;4995619;28;20044;-71
2022/04/02 01:56:10;;;;;;;6.45;1.08;;;2.70;99.90;;;0.95;65.27;100942.69;4974966;28;20085;-71
2022/04/02 01:58:36;;;;;;;4.82;1.52;;;2.60;99.90;;;0.94;65.16;100940.97;4993391;28;20044;-71
2022/04/02 02:01:04;;;;;;;5.95;1.60;;;2.60;99.90;;;0.92;65.44;100932.31;4999759;28;20022;-71
2022/04/02 02:03:30;;;;;;;4.75;1.65;;;2.60;99.90;;;0.97;65.62;100936.66;4994802;28;20029;-71
2022/04/02 02:05:56;;;;;;;5.40;1.52;;;2.70;99.90;;;1.00;65.52;100938.34;5006754;28;20048;-71
2022/04/02 02:08:23;;;;;;;3.03;1.48;;;2.70;99.90;;;1.08;65.62;100938.31;5016781;28;20038;-72
2022/04/02 02:10:49;;;;;;;4.20;1.75;;;2.80;99.90;;;1.19;65.70;100937.41;4986287;28;20037;-71
2022/04/02 02:13:16;;;;;;;5.47;1.80;;;2.80;99.90;;;1.11;65.03;100931.38;5001229;28;20394;-71
2022/04/02 02:15:44;;;;;;;5.35;1.30;;;2.80;99.90;;;1.11;64.93;100933.13;5000808;28;20025;-71
2022/04/02 02:18:10;;;;;;;3.28;1.30;;;2.80;99.90;;;1.07;64.85;100941.78;5005544;28;20033;-71
2022/04/02 02:20:35;;;;;;;5.03;1.23;;;2.80;99.90;;;1.08;64.86;100938.31;4992279;28;20034;-72
2022/04/02 02:23:01;;;;;;;6.20;1.70;;;2.80;99.90;;;1.10;65.13;100934.88;4994969;28;20038;-72
2022/04/02 02:25:27;;;;;;;3.85;1.25;;;2.80;99.90;;;1.10;65.06;100932.28;5005682;28;20048;-71
2022/04/02 02:27:53;;;;;;;4.80;1.23;;;2.80;99.90;;;1.10;64.75;100931.38;4996128;28;20042;-72
2022/04/02 02:30:19;;;;;;;4.95;1.17;;;2.80;99.90;;;1.05;64.63;100944.38;5000547;28;20483;-70
2022/04/02 02:32:46;;;;;;;2.40;0.93;;;2.70;99.90;;;0.95;64.88;100938.38;5000974;28;20072;-71
2022/04/02 02:38:10;;;;;;;2.10;0.75;;;2.70;99.90;;;0.96;64.00;100940.09;5001385;28;20501;-72
2022/04/02 02:40:39;;;;;;;4.20;1.00;;;2.70;99.90;;;1.02;63.79;100947.00;5000998;28;20520;-71
2022/04/02 02:43:07;;;;;;;7.00;1.00;;;2.70;99.90;;;1.07;63.92;100941.78;5010162;28;20124;-71
2022/04/02 02:45:34;;;;;;;1.30;1.00;;;2.80;99.90;;;1.09;63.82;100940.91;5000636;28;20649;-72
2022/04/02 02:48:02;;;;;;;4.63;1.23;;;2.70;99.90;;;0.98;63.26;100940.94;5001271;28;20034;-71
2022/04/02 02:50:29;;;;;;;7.43;1.48;;;2.70;99.90;;;0.99;63.87;100942.69;4994299;28;20479;-71
2022/04/02 02:52:55;;;;;;;4.18;1.13;;;2.70;99.90;;;0.96;63.85;100945.28;5001850;28;20049;-71
2022/04/02 02:55:22;;;;;;;2.75;1.13;;;2.70;99.90;;;0.95;63.76;100955.63;5004419;28;20022;-71
2022/04/02 02:57:48;;;;;;;4.72;1.08;;;2.60;99.90;;;0.87;64.37;100947.06;4999750;28;20033;-71
2022/04/02 03:00:17;;;;;;;4.40;1.30;;;2.50;99.90;;;0.79;64.53;100949.66;5000585;28;20053;-71
2022/04/02 03:02:43;;;;;;;6.25;1.23;;;2.60;99.90;;;0.86;64.65;100948.75;4986486;28;20375;-71
2022/04/02 03:05:17;;;;;;;6.85;1.83;;;2.50;99.90;;;0.87;64.60;100945.31;5001021;28;20033;-72
2022/04/02 03:07:48;;;;;;;5.00;1.20;;;2.60;99.90;;;0.87;64.38;100949.66;5002222;28;20100;-71
2022/04/02 03:10:23;;;;;;;4.60;1.30;;;2.60;99.90;;;0.89;64.27;100955.69;5002681;28;20033;-71
2022/04/02 03:12:51;;;;;;;8.18;1.30;;;2.60;99.90;;;0.97;64.36;100949.59;4999190;28;20037;-72
2022/04/02 03:15:18;;;;;;;2.90;1.38;;;2.70;99.90;;;0.96;63.88;100945.28;4984338;28;20048;-71
2022/04/02 03:17:45;;;;;;;2.05;0.80;;;2.60;99.90;;;0.92;63.45;100946.16;4984782;28;20040;-71
2022/04/02 03:20:13;;;;;;;3.75;1.20;;;2.70;99.90;;;0.99;63.27;100949.56;4999831;28;20066;-71
2022/04/02 03:22:43;;;;;;;4.13;1.70;;;2.70;99.90;;;1.00;63.32;100947.00;5001422;28;20025;-71
2022/04/02 03:25:17;;;;;;;3.78;1.25;;;2.70;99.90;;;1.06;63.19;100942.63;5002861;28;20037;-72
2022/04/02 03:27:45;;;;;;;4.72;1.20;;;2.70;99.90;;;1.00;62.86;100949.59;4984375;28;20489;-72
2022/04/02 03:30:16;;;;;;;6.95;1.42;;;2.70;99.90;;;1.10;62.61;100949.53;5010180;28;20034;-71
2022/04/02 03:32:42;;;;;;;7.07;1.70;;;2.70;99.90;;;1.12;62.69;100945.22;5006327;28;20033;-71
2022/04/02 03:35:14;;;;;;;2.75;1.10;;;2.70;99.90;;;1.10;62.67;100953.03;5009286;28;20109;-71
2022/04/02 03:37:43;;;;;;;4.70;2.10;;;2.70;99.90;;;1.03;62.53;100962.53;5007787;28;20168;-71
2022/04/02 03:40:20;;;;;;;3.33;1.23;;;2.70;99.90;;;1.02;62.83;100960.81;5002185;28;20034;-71
2022/04/02 03:42:47;;;;;;;4.55;1.05;;;2.70;99.90;;;0.99;62.01;100954.75;4999072;28;20021;-71
2022/04/02 03:45:18;;;;;;;2.40;1.08;;;2.70;99.90;;;1.05;62.20;100959.06;5000367;28;20044;-71
2022/04/02 03:47:46;;;;;;;2.92;1.60;;;2.70;99.90;;;1.08;61.67;100964.25;5016251;28;20037;-71
2022/04/02 03:50:13;;;;;;;5.05;1.50;;;2.80;99.90;;;1.08;61.46;100961.66;4998715;28;20041;-71
2022/04/02 03:52:40;;;;;;;4.88;1.27;;;2.70;99.90;;;1.06;61.29;100963.38;5009203;28;20041;-71
2022/04/02 03:55:08;;;;;;;2.47;1.45;;;2.70;99.90;;;1.10;61.16;100965.09;5003283;28;20045;-71
2022/04/02 03:57:35;;;;;;;2.75;1.13;;;2.70;99.90;;;1.05;61.14;100964.25;4985238;28;20045;-71
2022/04/02 04:00:04;;;;;;;11.02;1.83;;;2.80;99.90;;;1.07;61.50;100960.78;4999508;28;20629;-71
2022/04/02 04:02:30;;;;;;;1.33;0.85;;;2.70;99.90;;;1.02;61.45;100971.19;5000090;28;20497;-71
2022/04/02 04:04:56;;;;;;;5.15;1.73;;;2.70;99.90;;;1.06;61.71;100971.16;4989466;28;20045;-72
2022/04/02 04:07:23;;;;;;;6.60;1.52;;;2.80;99.90;;;1.01;62.00;100973.78;4983421;28;20080;-70
2022/04/02 04:09:49;;;;;;;2.65;1.27;;;2.70;99.90;;;1.09;62.04;100972.03;4984902;28;20426;-71
2022/04/02 04:12:17;;;;;;;3.97;1.52;;;2.80;99.90;;;1.14;62.34;100972.84;4997177;28;20084;-71
2022/04/02 04:14:45;;;;;;;4.45;1.30;;;2.80;99.90;;;1.20;61.93;100970.25;5001978;28;20045;-71
2022/04/02 04:17:11;;;;;;;6.65;1.48;;;2.80;99.90;;;1.24;61.70;100973.69;4999722;28;20030;-71
2022/04/02 04:19:37;;;;;;;4.25;1.58;;;2.90;99.90;;;1.31;61.80;100980.56;4996327;28;20113;-72
2022/04/02 04:22:06;;;;;;;4.13;1.08;;;2.80;99.90;;;1.18;61.97;100982.34;5000712;28;20037;-71
2022/04/02 04:24:33;;;;;;;3.20;0.93;;;2.80;99.90;;;1.11;62.38;100988.44;4999763;28;20033;-70
2022/04/02 04:27:00;;;;;;;4.15;1.27;;;2.80;99.90;;;1.16;62.89;100991.88;4996454;28;20057;-71
2022/04/02 04:29:26;;;;;;;7.18;1.85;;;2.80;99.90;;;1.16;63.42;100988.41;4999596;28;20650;-71
2022/04/02 04:31:52;;;;;;;4.55;0.82;;;2.90;99.90;;;1.21;63.52;100991.88;5001825;28;20042;-71
2022/04/02 04:34:18;;;;;;;5.25;1.17;;;2.90;99.90;;;1.20;63.70;100987.53;5000574;28;20037;-71
2022/04/02 04:36:46;;;;;;;3.28;1.23;;;2.90;99.90;;;1.17;64.09;101001.41;4998664;28;20038;-71
2022/04/02 04:39:12;;;;;;;11.65;2.03;;;2.90;99.90;;;1.19;64.48;101002.25;5002395;28;20037;-71
2022/04/02 04:41:38;;;;;;;5.30;1.48;;;2.90;99.90;;;1.20;64.47;100998.78;4998663;28;20541;-71
2022/04/02 04:44:05;;;;;;;3.28;1.30;;;2.90;99.90;;;1.16;64.98;101003.97;4999629;28;20034;-71
2022/04/02 04:46:31;;;;;;;2.88;1.65;;;2.90;99.90;;;1.20;64.70;101005.69;4998173;28;20044;-71
2022/04/02 04:48:57;;;;;;;8.20;1.73;;;2.90;99.90;;;1.28;64.91;101010.88;4983962;28;20116;-71
2022/04/02 04:51:23;;;;;;;4.95;1.83;;;2.90;99.90;;;1.30;65.37;101002.22;5002636;28;20608;-71
2022/04/02 04:53:51;;;;;;;3.53;1.33;;;2.90;99.90;;;1.28;65.22;101009.13;4980474;28;20119;-71
2022/04/02 04:56:17;;;;;;;4.65;1.55;;;3.00;99.90;;;1.27;65.26;101007.41;4999289;28;20038;-71
2022/04/02 04:58:43;;;;;;;4.65;1.08;;;3.00;99.90;;;1.23;65.78;101003.97;5001129;28;20057;-71
2022/04/02 05:01:09;;;;;;;5.45;1.52;;;3.00;99.90;;;1.39;65.72;101012.53;4999700;28;20034;-72
2022/04/02 05:03:35;;;;;;;6.50;1.70;;;2.90;99.90;;;1.30;66.14;101002.22;4999317;28;20049;-71
2022/04/02 05:06:02;;;;;;;5.35;1.48;;;3.00;99.90;;;1.29;66.35;101003.06;4999523;28;20025;-72
2022/04/02 05:08:32;;;;;;;3.97;1.40;;;3.00;99.90;;;1.33;66.32;101002.19;4990598;28;20052;-72
2022/04/02 05:11:00;;;;;;;6.40;1.63;;;3.00;99.90;;;1.37;66.84;101003.91;4998653;28;20049;-71
2022/04/02 05:13:26;;;;;;;10.13;1.52;;;3.00;99.90;;;1.32;66.55;101013.44;4982788;28;20078;-71
2022/04/02 05:15:52;;;;;;;3.78;1.42;;;3.00;99.90;;;1.29;67.39;101012.59;4998982;28;20053;-71
2022/04/02 05:18:18;;;;;;;5.82;1.63;;;3.00;99.90;;;1.26;67.66;101017.81;5001046;28;20037;-70
2022/04/02 05:20:44;;;;;;;4.97;1.42;;;3.00;99.90;;;1.36;67.59;101022.06;5001172;28;20026;-71
2022/04/02 05:23:09;;;;;;;4.47;1.70;;;3.00;99.90;;;1.38;67.79;101026.41;4973133;28;20116;-71
2022/04/02 05:25:38;;;;;;;6.88;1.80;;;3.00;99.90;;;1.39;67.93;101027.25;4971648;28;20525;-71
2022/04/02 05:28:05;;;;;;;3.75;1.50;;;3.00;99.90;;;1.39;68.80;101033.31;4985112;28;20044;-72
2022/04/02 05:30:33;;;;;;;4.60;1.45;;;3.00;99.90;;;1.64;69.21;101035.78;4981143;28;20448;-71
2022/04/02 05:32:59;;;;;;;4.57;0.98;;;3.10;99.90;;;1.68;69.18;101027.09;4989529;28;20041;-71
2022/04/02 05:35:28;;;;;;;4.18;1.20;;;3.20;99.90;;;1.72;69.11;101028.81;4979694;28;20022;-71
2022/04/02 05:37:54;;;;;;;5.38;1.50;;;3.20;99.90;;;1.92;68.90;101041.69;4997128;28;20048;-72
2022/04/02 05:40:20;;;;;;;2.70;1.02;;;3.30;99.90;;;1.88;68.52;101036.53;4999811;28;20025;-71
2022/04/02 05:42:46;;;;;;;13.00;2.20;;;3.40;99.90;;;2.02;68.48;101035.56;4996291;28;20557;-71
2022/04/02 05:45:13;;;;;;;7.65;1.48;;;3.50;99.90;;;2.13;68.09;101043.28;5004020;28;20034;-71
2022/04/02 05:47:49;;;;;;;4.05;1.38;;;3.50;99.90;;;2.11;67.68;101036.38;5003432;28;20025;-71
2022/04/02 05:50:18;;;;;;;8.60;1.83;;;3.60;99.90;;;2.14;67.70;101050.22;5003225;28;20088;-72
2022/04/02 05:52:45;;;;;;;8.32;1.75;;;3.60;99.90;;;2.12;67.66;101040.72;5002542;28;20033;-71
2022/04/02 05:55:12;;;;;;;3.08;1.30;;;3.60;99.90;;;2.04;67.73;101040.75;5017780;28;20096;-71
2022/04/02 05:57:42;;;;;;;7.55;1.80;;;3.60;99.90;;;1.99;67.23;101038.19;5018582;28;20033;-71
2022/04/02 06:00:13;;;;;;;2.60;0.70;;;3.50;99.90;;;1.74;68.01;101045.25;5017517;28;20033;-71
2022/04/02 06:02:40;;;;;;;4.45;1.33;;;3.40;99.90;;;1.71;68.73;101055.66;5004281;28;20080;-71
2022/04/02 06:05:08;;;;;;;3.13;1.55;;;3.30;99.90;;;1.63;68.77;101062.63;5003108;28;20401;-71
2022/04/02 06:07:35;;;;;;;9.07;1.60;;;3.40;99.90;;;1.71;68.68;101049.63;5001610;28;20026;-71
2022/04/02 06:10:04;;;;;;;4.43;1.67;;;3.40;99.90;;;1.81;68.40;101051.28;4991374;28;20041;-75
2022/04/02 06:12:33;;;;;;;4.85;1.70;;;3.40;99.90;;;1.75;68.27;101059.97;5001123;28;20063;-77
2022/04/02 06:14:59;;;;;;;2.88;1.08;;;3.40;99.90;;;1.71;68.38;101060.88;4991565;28;20022;-71
2022/04/02 06:17:26;;;;;;;6.43;1.77;;;3.30;99.90;;;1.68;68.14;101060.00;5007640;28;20099;-73
2022/04/02 06:19:53;;;;;;;3.83;1.35;;;3.30;99.90;;;1.51;68.72;101065.25;4986187;28;20033;-73
2022/04/02 06:22:18;;;;;;;4.70;1.27;;;3.10;99.90;;;1.37;69.63;101076.56;4992713;28;20057;-73
2022/04/02 06:24:45;;;;;;;5.43;1.45;;;3.10;99.90;;;1.43;70.63;101084.31;4978266;28;20017;-74
2022/04/02 06:27:11;;;;;;;12.52;2.10;;;3.20;99.90;;;1.48;72.61;101093.84;4990024;28;20509;-73
2022/04/02 06:29:37;;;;;;;4.28;1.60;;;3.10;99.90;;;1.15;76.47;101106.88;5002678;28;20073;-74
2022/04/02 06:32:04;;;;;;;11.38;2.20;;;2.80;99.90;;;0.79;83.27;101115.56;4996645;28;20471;-74
2022/04/02 06:34:30;;;;;;;4.43;1.50;;;2.60;99.90;;;0.61;87.61;101109.50;4992868;28;20096;-74
2022/04/02 06:36:56;;;;;;;5.50;1.45;;;2.40;99.90;;;0.53;90.33;101106.03;5002798;28;20030;-73
2022/04/02 06:39:22;;;;;;;11.05;2.20;;;2.40;99.90;;;0.71;92.10;101109.50;4973727;28;20035;-72
2022/04/02 06:41:48;;;;;;;6.90;1.90;;;2.50;99.90;;;0.88;92.99;101112.94;4994734;28;20152;-72
2022/04/02 06:44:14;;;;;;;7.20;1.65;;;2.60;99.90;;;1.08;93.59;101115.56;5018552;28;20124;-73
2022/04/02 06:46:40;;;;;;;6.18;1.80;;;2.70;99.90;;;1.21;93.28;101103.44;5003693;28;20095;-72
2022/04/02 06:49:06;;;;;;;12.88;2.60;;;2.70;99.90;;;1.17;93.16;101114.66;4984559;28;20176;-73
2022/04/02 06:51:36;;;;;;;8.93;2.55;;;2.70;99.90;;;0.99;93.08;101118.13;4989851;28;20025;-73
2022/04/02 06:54:04;;;;;;;7.05;2.58;;;2.70;99.90;;;1.52;93.55;101111.97;4998339;28;20448;-73
2022/04/02 06:56:31;;;;;;;7.45;2.97;;;2.80;99.90;;;1.38;93.19;101100.75;5002575;28;20046;-73
2022/04/02 06:58:57;;;;;;;8.23;3.03;;;2.70;99.90;;;1.12;93.90;101113.78;5001342;28;20041;-73
2022/04/02 07:01:23;;;;;;;8.52;2.72;;;2.60;99.90;;;0.81;95.22;101117.28;5007686;28;20543;-73
2022/04/02 07:03:49;;;;;;;5.25;1.67;;;2.40;99.90;;;0.55;97.02;101117.28;4999774;28;20030;-76
2022/04/02 07:06:14;;;;;;;5.50;1.85;;;2.40;99.90;;;0.85;98.94;101112.97;4972610;28;20040;-75
2022/04/02 07:08:40;;;;;;;3.00;1.67;;;2.50;99.90;;;1.29;97.91;101119.81;5000532;28;20033;-75
2022/04/02 07:11:06;;;;;;;4.53;1.30;;;2.70;99.90;;;1.70;94.50;101115.38;4998709;28;20582;-74
2022/04/02 07:13:35;;;;;;;2.45;1.40;;;3.10;99.90;;;2.37;92.29;101119.34;4999739;28;20030;-74
2022/04/02 07:16:02;;;;;;;4.28;1.95;;;3.50;99.90;;;4.29;87.57;101119.97;4993287;28;20030;-74
2022/04/02 07:18:30;;;;;;;5.38;1.35;;;4.00;99.90;;;3.24;83.33;101115.16;5000142;28;20037;-74
2022/04/02 07:21:00;;;;;;;4.78;1.77;;;4.20;99.90;;;2.69;82.52;101111.31;5001897;28;20371;-74
2022/04/02 07:23:29;;;;;;;6.10;2.33;;;3.90;99.90;;;2.20;83.50;101128.13;4992212;28;20081;-74
2022/04/02 07:25:57;;;;;;;7.07;2.38;;;3.80;99.90;;;2.13;84.57;101129.03;4993533;28;20108;-74
2022/04/02 07:28:25;;;;;;;8.10;1.48;;;3.80;99.90;;;2.21;84.44;101122.06;4999751;28;20083;-74
2022/04/02 07:30:51;;;;;;;7.00;1.67;;;3.80;99.90;;;2.40;84.18;101124.56;4999677;28;20056;-74
2022/04/02 07:33:19;;;;;;;3.97;1.77;;;3.80;99.90;;;2.31;83.97;101133.28;4972213;28;20028;-74
2022/04/02 07:35:58;;;;;;;5.43;1.73;;;3.90;99.90;;;2.36;83.92;101134.09;4998692;28;20040;-73
2022/04/02 07:39:25;;;;;;;7.72;1.50;;;3.90;99.90;;;2.56;83.13;101135.69;5001643;28;20041;-74
2022/04/02 07:42:23;;;;;;;5.22;1.50;;;3.90;99.90;;;2.45;82.56;101138.38;4950403;28;20039;-71
2022/04/02 07:45:04;;;;;;;5.07;1.70;;;3.90;99.90;;;2.20;83.07;101148.91;4950247;28;20113;-73
2022/04/02 07:47:36;;;;;;;4.68;2.15;;;3.70;99.90;;;1.93;85.28;101160.28;4996244;28;20032;-74
2022/04/02 07:50:13;;;;;;;7.32;2.20;;;3.60;99.90;;;1.85;89.22;101162.06;5001925;28;20026;-73
2022/04/02 07:52:45;;;;;;;5.28;1.45;;;3.40;99.90;;;1.67;90.18;101150.00;4997013;28;20061;-74
2022/04/02 07:55:17;;;;;;;5.35;1.98;;;3.40;99.90;;;1.66;90.76;101153.44;4992900;28;20371;-73
2022/04/02 07:57:46;;;;;;;7.60;1.95;;;3.30;99.90;;;1.64;90.86;101161.25;4995263;28;20052;-73
2022/04/02 08:00:17;;;;;;;4.78;1.92;;;3.30;99.90;;;1.51;91.15;101161.28;5001608;28;20083;-74
2022/04/02 08:02:46;;;;;;;8.77;2.42;;;3.20;99.90;;;1.43;91.35;101159.59;4987142;28;20049;-74
2022/04/02 08:05:16;;;;;;;5.88;2.20;;;3.20;99.90;;;1.36;92.19;101163.06;4988668;28;21066;-73
2022/04/02 08:07:57;;;;;;;6.85;1.98;;;3.10;99.90;;;1.24;92.03;101163.06;4990098;28;20449;-74
2022/04/02 08:10:28;;;;;;;8.02;2.42;;;2.90;99.90;;;1.06;93.91;101173.44;4998861;28;20041;-75
2022/04/02 08:12:57;;;;;;;7.95;2.17;;;2.80;99.90;;;1.00;94.66;101170.00;4977305;28;20100;-75
2022/04/02 08:15:25;;;;;;;12.20;2.80;;;2.70;99.90;;;0.98;95.49;101179.50;4980241;28;20034;-74
2022/04/02 08:17:54;;;;;;;7.10;2.33;;;2.70;99.90;;;0.99;96.41;101182.97;4999321;28;20048;-74
2022/04/02 08:20:22;;;;;;;11.13;2.47;;;2.60;99.90;;;0.87;97.49;101182.97;4998979;28;20105;-75
2022/04/02 08:22:49;;;;;;;7.43;1.80;;;2.60;99.90;;;0.85;98.33;101180.38;4988970;28;20033;-75
2022/04/02 08:25:16;;;;;;;8.02;1.85;;;2.50;99.90;;;0.74;99.20;101185.53;5000328;28;20043;-75
2022/04/02 08:27:48;;;;;;;6.65;2.17;;;2.50;99.90;;;0.64;99.97;101185.53;4995779;28;20044;-76
2022/04/02 08:30:18;;;;;;;3.13;1.33;;;2.40;99.90;;;0.51;100.00;101187.22;5000535;28;20026;-76
2022/04/02 08:33:40;;;;;;;8.93;3.50;;;2.30;99.90;;;0.44;100.00;101201.91;4982834;28;20030;-76
2022/04/02 08:36:57;;;;;;;7.10;2.15;;;2.10;99.90;;;0.30;100.00;101206.16;4999061;28;20376;-75
2022/04/02 08:39:38;;;;;;;6.57;2.22;;;1.90;99.90;;;0.22;100.00;101210.44;4980573;28;20655;-74
2022/04/02 08:42:12;;;;;;;11.02;2.83;;;1.90;99.90;;;0.34;100.00;101213.09;5000050;28;20050;-74
2022/04/02 08:45:03;;;;;;;8.75;3.00;;;2.10;99.90;;;0.67;100.00;101217.53;4997626;28;20689;-75
2022/04/02 08:47:50;;;;;;;6.65;2.53;;;2.30;99.90;;;0.94;100.00;101219.25;4987318;28;20067;-76
2022/04/02 08:50:17;;;;;;;13.63;3.15;;;2.50;99.90;;;1.09;100.00;101225.34;4989607;28;20029;-75
2022/04/02 08:53:05;;;;;;;7.05;2.05;;;2.60;99.90;;;1.17;100.00;101218.44;4997331;28;20095;-75
2022/04/02 08:55:44;;;;;;;8.23;2.70;;;2.80;99.90;;;1.50;100.00;101225.31;4991365;28;20400;-75
2022/04/02 08:58:31;;;;;;;8.77;2.42;;;2.90;99.90;;;1.68;100.00;101221.81;4999236;28;20381;-76
2022/04/02 09:01:09;;;;;;;10.70;2.65;;;3.30;99.90;;;2.23;100.00;101223.38;4999589;28;20024;-75
2022/04/02 09:04:26;;;;;;;8.95;2.22;;;3.50;99.90;;;2.40;100.00;101228.50;4974818;28;20418;-75
2022/04/02 09:07:58;;;;;;;8.85;1.90;;;3.60;99.90;;;2.31;99.87;101220.75;4997443;28;20037;-74
2022/04/02 09:11:09;;;;;;;6.32;1.63;;;3.70;99.90;;;2.25;93.50;101221.66;4966944;28;20037;-75
2022/04/02 09:13:59;;;;;;;6.28;1.75;;;3.80;99.90;;;2.50;88.79;101227.56;4990064;28;20048;-74
2022/04/02 09:17:15;;;;;;;6.50;1.60;;;3.90;99.90;;;2.47;86.53;101225.84;4989795;28;20124;-73
2022/04/02 09:20:13;;;;;;;11.02;1.63;;;4.10;99.90;;;2.91;84.73;101223.84;4973198;28;20514;-74
2022/04/02 09:23:11;;;;;;;2.20;0.95;;;4.20;99.90;;;2.72;82.30;101217.94;4981746;28;20117;-75
2022/04/02 09:26:28;;;;;;;2.13;1.02;;;4.00;99.90;;;2.45;80.73;101227.59;4999338;28;20117;-75
2022/04/02 09:29:15;;;;;;;4.35;1.35;;;4.10;99.90;;;2.53;79.80;101226.69;4985205;28;20057;-74
2022/04/02 09:31:53;;;;;;;3.47;1.20;;;4.10;99.90;;;2.63;79.83;101234.44;4978688;28;20026;-74
2022/04/02 09:34:56;;;;;;;5.50;1.65;;;4.20;99.90;;;2.98;78.69;101225.56;4997958;28;20038;-75
2022/04/02 09:37:46;;;;;;;4.32;1.63;;;4.30;99.90;;;3.02;76.68;101219.47;5000739;28;20394;-75
2022/04/02 09:40:12;;;;;;;5.15;1.48;;;4.40;99.90;;;2.97;74.47;101212.56;4996773;28;20034;-75
2022/04/02 09:42:44;;;;;;;6.88;1.35;;;4.40;99.90;;;3.22;73.62;101227.09;4997878;28;20022;-75
2022/04/02 09:45:14;;;;;;;3.55;1.35;;;4.60;99.90;;;3.40;72.09;101226.06;4988613;28;21231;-74
2022/04/02 09:48:17;;;;;;;1.33;1.05;;;4.70;99.90;;;3.32;70.75;101220.06;5014052;28;20068;-75
2022/04/02 09:50:45;;;;;;;11.38;2.15;;;4.80;99.90;;;3.52;70.66;101226.81;4996945;28;20038;-75
2022/04/02 09:53:26;;;;;;;3.90;1.40;;;4.60;99.90;;;3.10;69.71;101221.13;4979756;28;20053;-74
2022/04/02 09:56:23;;;;;;;3.70;1.45;;;4.50;99.90;;;3.04;70.31;101233.28;4997739;28;20498;-73
2022/04/02 09:59:06;;;;;;;5.03;1.38;;;4.60;99.90;;;3.35;71.17;101225.25;4999263;28;20042;-74
2022/04/02 10:01:40;;;;;;;6.78;1.13;;;4.80;99.90;;;3.33;69.65;101224.41;4997494;28;20022;-73
2022/04/02 10:04:32;;;;;;;2.88;1.20;;;4.60;99.90;;;3.02;68.34;101222.06;4999826;28;21414;-74
2022/04/02 10:07:07;;;;;;;6.05;1.70;;;4.70;99.90;;;3.26;69.59;101234.00;4995489;28;20037;-73
2022/04/02 10:09:36;;;;;;;1.35;0.80;;;4.60;99.90;;;3.18;69.34;101229.75;4998387;28;20920;-73
2022/04/02 10:12:04;;;;;;;2.40;0.90;;;4.40;99.90;;;2.70;70.51;101235.28;4978946;28;20037;-73
2022/04/02 10:14:35;;;;;;;3.67;1.20;;;4.20;99.90;;;2.55;71.17;101237.94;4978853;28;20053;-74
2022/04/02 10:17:07;;;;;;;2.75;1.02;;;4.30;99.90;;;2.73;71.10;101227.44;4986544;28;20038;-73
2022/04/02 10:19:39;;;;;;;5.25;1.00;;;4.20;99.90;;;2.57;70.20;101231.00;5003641;28;20057;-74
2022/04/02 10:22:12;;;;;;;4.35;0.80;;;4.20;99.90;;;2.65;69.85;101237.88;4997802;28;20121;-73
2022/04/02 10:24:50;;;;;;;4.28;1.23;;;4.30;99.90;;;2.87;70.28;101237.75;4988182;28;20087;-74
2022/04/02 10:27:37;;;;;;;5.53;1.50;;;4.40;99.90;;;2.97;68.93;101236.81;4999819;28;20028;-74
2022/04/02 10:30:06;;;;;;;;;;;4.40;99.90;;;2.90;68.22;101229.94;4984124;28;20122;-74
2022/04/02 10:32:41;;;;;;;7.75;1.10;;;4.30;99.90;;;2.67;67.47;101230.09;4985175;28;19917;-74
2022/04/02 10:35:14;;;;;;;4.93;1.45;;;4.30;99.90;;;2.80;68.68;101243.88;4995732;28;20036;-74
2022/04/02 10:38:09;;;;;;;3.63;1.15;;;4.40;99.90;;;2.94;69.19;101233.38;5010049;28;20041;-74
2022/04/02 10:40:56;;;;;;;3.28;1.00;;;4.40;99.90;;;2.94;69.06;101238.56;5000215;28;20030;-75
2022/04/02 10:43:29;;;;;;;3.65;1.40;;;4.40;99.90;;;2.99;68.28;101234.22;4981658;28;20021;-74
2022/04/02 10:46:01;;;;;;;7.35;1.50;;;4.40;99.90;;;2.87;68.69;101240.34;4998631;28;20748;-75
2022/04/02 10:48:54;;;;;;;8.52;1.38;;;4.40;99.90;;;2.85;67.81;101236.91;4984846;28;20051;-74